Porthleven, United Kingdom
Current Conditions -  °F | °C
As of 11:50 PM on Friday 21 Nov 2014 (Local Time) from EGDR Reporting Station
Haze Haze  
Wind Chill: 57°   Ceiling: 200
Heat Index: 57°   Visibility: 1.8mi
Dew Point: 55°   Wind: 15mph
Humidity: 94%   Direction: 190°S
Pressure: 29.77"   Gusts: NA
Location:  50.09°N, 5.32°W
Report Text: EGDR 212350Z 19013KT 3000 BR FEW001 BKN002 OVC004 14/13 Q1008 AMB
Loading
Personal Weather Stations






























Interactive Weather Map New forecast layout! Learn more

10-Day Weather Forecast

Advertisements
Track Severe Weather on mobile